createdAt,value
2019-05-15T00:01:52.813Z,46.43
2019-05-15T00:04:22.676Z,45.77
2019-05-15T00:06:52.544Z,47.11
2019-05-15T00:09:22.393Z,47.79
2019-05-15T00:11:52.261Z,45.89
2019-05-15T00:14:22.155Z,46.06
2019-05-15T00:16:52.069Z,47.07
2019-05-15T00:19:21.947Z,47.72
2019-05-15T00:21:51.824Z,46.90
2019-05-15T00:24:21.841Z,47.10
2019-05-15T00:26:51.999Z,47.99
2019-05-15T00:29:21.866Z,46.95
2019-05-15T00:31:51.789Z,46.63
2019-05-15T00:34:21.666Z,46.70
2019-05-15T00:36:51.553Z,48.98
2019-05-15T00:39:21.660Z,47.62
2019-05-15T00:41:54.846Z,47.52
2019-05-15T00:44:23.158Z,46.17
2019-05-15T00:46:53.032Z,47.65
2019-05-15T00:49:22.890Z,47.03
2019-05-15T00:51:52.861Z,46.40
2019-05-15T00:54:22.720Z,46.25
2019-05-15T00:56:52.610Z,48.41
2019-05-15T00:59:26.593Z,47.02
2019-05-15T01:01:54.095Z,47.21
2019-05-15T01:04:23.965Z,48.18
2019-05-15T01:06:53.923Z,46.82
2019-05-15T01:09:23.934Z,47.40
2019-05-15T01:11:53.834Z,47.16
2019-05-15T01:14:23.704Z,46.92
2019-05-15T01:16:53.594Z,47.77
2019-05-15T01:19:23.497Z,47.33
2019-05-15T01:21:53.495Z,47.22
2019-05-15T01:24:24.370Z,47.13
2019-05-15T01:26:54.283Z,49.46
2019-05-15T01:29:31.013Z,48.51
2019-05-15T01:31:55.735Z,49.16
2019-05-15T01:34:25.591Z,50.89
2019-05-15T01:36:55.466Z,49.41
2019-05-15T01:39:25.364Z,49.60
2019-05-15T01:41:55.299Z,49.00
2019-05-15T01:44:25.160Z,49.12
2019-05-15T01:46:55.011Z,49.83
2019-05-15T01:49:24.873Z,49.07
2019-05-15T01:51:54.734Z,48.47
2019-05-15T01:54:24.591Z,48.79
2019-05-15T01:56:54.465Z,48.55
2019-05-15T01:59:24.453Z,49.07
2019-05-15T02:01:54.357Z,48.88
2019-05-15T02:04:24.446Z,48.93
2019-05-15T02:06:54.385Z,49.40
2019-05-15T02:09:24.266Z,49.12
2019-05-15T02:11:54.133Z,49.51
2019-05-15T02:14:24.009Z,49.87
2019-05-15T02:16:53.872Z,49.88
2019-05-15T02:19:23.760Z,49.60
2019-05-15T02:21:53.627Z,50.16
2019-05-15T02:24:23.540Z,50.28
2019-05-15T02:26:53.459Z,50.04
2019-05-15T02:29:25.093Z,50.31
2019-05-15T02:31:55.025Z,50.93
2019-05-15T02:34:24.908Z,51.23
2019-05-15T02:36:54.822Z,51.54
2019-05-15T02:39:24.687Z,51.10
2019-05-15T02:41:54.564Z,51.62
2019-05-15T02:44:24.469Z,52.00
2019-05-15T02:46:54.315Z,52.77
2019-05-15T02:49:24.192Z,52.62
2019-05-15T02:51:54.071Z,52.22
2019-05-15T02:54:23.936Z,55.00
2019-05-15T02:56:53.781Z,52.16
2019-05-15T02:59:23.644Z,51.21
2019-05-15T03:01:53.541Z,52.00
2019-05-15T03:04:23.401Z,52.30
2019-05-15T03:06:53.259Z,52.53
2019-05-15T03:09:23.124Z,51.84
2019-05-15T03:11:53.022Z,52.36
2019-05-15T03:14:23.033Z,52.17
2019-05-15T03:16:53.065Z,52.76
2019-05-15T03:19:22.927Z,53.11
2019-05-15T03:21:52.778Z,53.23
2019-05-15T03:24:22.903Z,51.62
2019-05-15T03:26:52.765Z,52.80
2019-05-15T03:29:22.804Z,52.16
2019-05-15T03:32:05.984Z,52.76
2019-05-15T03:34:30.780Z,52.73
2019-05-15T03:36:55.943Z,53.03
2019-05-15T03:39:25.873Z,52.47
2019-05-15T03:41:58.750Z,53.76
2019-05-15T03:44:28.784Z,53.54
2019-05-15T03:46:59.654Z,52.56
2019-05-15T03:49:29.885Z,52.58
2019-05-15T03:51:59.750Z,52.22
2019-05-15T03:54:29.737Z,52.61
2019-05-15T03:56:59.735Z,52.21
2019-05-15T03:59:29.725Z,53.09
2019-05-15T04:02:00.085Z,52.93
2019-05-15T04:04:30.082Z,52.90
2019-05-15T04:07:00.024Z,52.77
2019-05-15T04:09:30.260Z,51.56
2019-05-15T04:12:00.215Z,52.99
2019-05-15T04:14:30.080Z,52.97
2019-05-15T04:17:00.025Z,52.67
2019-05-15T04:19:29.972Z,51.41
2019-05-15T04:22:00.324Z,51.44
2019-05-15T04:24:32.908Z,50.56
2019-05-15T04:27:07.208Z,51.20
2019-05-15T04:29:39.864Z,51.98
2019-05-15T04:32:10.520Z,50.07
2019-05-15T04:34:40.343Z,50.55
2019-05-15T04:37:10.181Z,50.28
2019-05-15T04:39:40.291Z,50.20
2019-05-15T04:42:10.203Z,50.51
2019-05-15T04:44:40.357Z,51.27
2019-05-15T04:47:10.227Z,50.96
2019-05-15T04:49:40.800Z,51.31
2019-05-15T04:52:10.905Z,51.09
2019-05-15T04:54:40.900Z,51.87
2019-05-15T04:57:10.748Z,52.44
2019-05-15T04:59:40.766Z,52.72
2019-05-15T05:02:17.235Z,51.19
2019-05-15T05:04:42.372Z,51.64
2019-05-15T05:07:12.500Z,51.61
2019-05-15T05:09:42.391Z,51.48
2019-05-15T05:12:12.325Z,49.93
2019-05-15T05:14:42.191Z,51.06
2019-05-15T05:17:12.061Z,52.23
2019-05-15T05:19:41.911Z,51.61
2019-05-15T05:22:11.840Z,52.26
2019-05-15T05:24:41.707Z,51.27
2019-05-15T05:27:11.581Z,50.31
2019-05-15T05:29:41.593Z,52.21
2019-05-15T05:32:11.460Z,51.39
2019-05-15T05:34:41.500Z,52.26
2019-05-15T05:37:11.401Z,50.63
2019-05-15T05:39:41.581Z,50.50
2019-05-15T05:42:11.453Z,50.04
2019-05-15T05:44:42.792Z,48.85
2019-05-15T05:47:12.669Z,49.12
2019-05-15T05:49:42.545Z,49.51
2019-05-15T05:52:12.483Z,50.10
2019-05-15T05:54:42.389Z,49.28
2019-05-15T05:57:12.280Z,49.53
2019-05-15T05:59:42.197Z,48.72
2019-05-15T06:02:12.062Z,49.57
2019-05-15T06:04:42.015Z,50.88
2019-05-15T06:07:14.261Z,49.32
2019-05-15T06:09:43.521Z,48.89
2019-05-15T06:12:13.421Z,49.31
2019-05-15T06:14:43.264Z,48.89
2019-05-15T06:17:13.134Z,49.13
2019-05-15T06:19:42.994Z,48.81
2019-05-15T06:22:12.902Z,48.90
2019-05-15T06:24:43.548Z,49.05
2019-05-15T06:27:13.402Z,49.34
2019-05-15T06:29:43.267Z,48.77
2019-05-15T06:32:13.259Z,47.84
2019-05-15T06:34:43.132Z,47.22
2019-05-15T06:37:12.985Z,48.93
2019-05-15T06:39:42.929Z,48.89
2019-05-15T06:42:12.865Z,48.67
2019-05-15T06:44:42.820Z,47.58
2019-05-15T06:47:12.710Z,46.14
2019-05-15T06:49:42.594Z,47.11
2019-05-15T06:52:12.479Z,47.56
2019-05-15T06:54:42.372Z,46.88
2019-05-15T06:57:12.252Z,45.96
2019-05-15T06:59:42.579Z,45.04
2019-05-15T07:02:12.500Z,45.42
2019-05-15T07:04:42.364Z,45.99
2019-05-15T07:07:12.271Z,45.03
2019-05-15T07:09:42.247Z,44.71
2019-05-15T07:12:12.261Z,45.72
2019-05-15T07:14:42.231Z,44.97
2019-05-15T07:17:12.186Z,44.54
2019-05-15T07:19:42.112Z,43.69
2019-05-15T07:22:12.252Z,43.66
2019-05-15T07:24:42.163Z,47.07
2019-05-15T07:27:12.618Z,45.06
2019-05-15T07:29:42.488Z,44.23
2019-05-15T07:32:12.612Z,43.89
2019-05-15T07:34:42.955Z,44.62
2019-05-15T07:37:12.839Z,44.77
2019-05-15T07:39:43.184Z,43.68
2019-05-15T07:42:13.551Z,44.22
2019-05-15T07:44:43.437Z,43.38
2019-05-15T07:47:13.385Z,42.50
2019-05-15T07:49:43.384Z,42.54
2019-05-15T07:52:13.361Z,40.76
2019-05-15T07:54:43.231Z,41.81
2019-05-15T07:57:13.640Z,37.83
2019-05-15T07:59:43.580Z,37.36
2019-05-15T08:02:13.477Z,37.60
2019-05-15T08:04:43.401Z,37.09
2019-05-15T08:07:13.344Z,34.32
2019-05-15T08:09:43.253Z,33.91
2019-05-15T08:12:13.390Z,33.42
2019-05-15T08:14:43.269Z,34.43
2019-05-15T08:17:13.173Z,34.46
2019-05-15T08:19:43.137Z,34.44
2019-05-15T08:22:15.109Z,34.39
2019-05-15T08:24:44.766Z,35.00
2019-05-15T08:27:14.817Z,34.55
2019-05-15T08:29:44.766Z,34.19
2019-05-15T08:32:14.754Z,34.98
2019-05-15T08:34:44.637Z,34.25
2019-05-15T08:37:14.534Z,34.83
2019-05-15T08:39:48.809Z,34.61
2019-05-15T08:42:18.854Z,34.33
2019-05-15T08:44:49.129Z,34.30
2019-05-15T08:47:19.446Z,35.06
2019-05-15T08:49:49.512Z,35.65
2019-05-15T08:52:19.476Z,34.64
2019-05-15T08:54:49.439Z,35.02
2019-05-15T08:57:20.557Z,35.02
2019-05-15T08:59:50.578Z,35.71
2019-05-15T09:02:20.569Z,35.72
2019-05-15T09:04:50.742Z,35.69
2019-05-15T09:07:20.655Z,35.01
2019-05-15T09:09:50.776Z,34.97
2019-05-15T09:12:20.714Z,35.47
2019-05-15T09:14:50.793Z,34.83
2019-05-15T09:17:20.663Z,35.15
2019-05-15T09:19:50.616Z,35.07
2019-05-15T09:22:20.588Z,34.86
2019-05-15T09:24:50.489Z,35.40
2019-05-15T09:27:20.428Z,34.60
2019-05-15T09:29:50.353Z,35.31
2019-05-15T09:32:20.232Z,35.67
2019-05-15T09:34:55.157Z,36.14
2019-05-15T09:37:21.857Z,35.45
2019-05-15T09:39:51.753Z,34.09
2019-05-15T09:42:21.735Z,34.12
2019-05-15T09:44:51.641Z,34.28
2019-05-15T09:47:21.668Z,35.74
2019-05-15T09:49:52.120Z,34.40
2019-05-15T09:52:23.009Z,35.78
2019-05-15T09:54:53.303Z,35.68
2019-05-15T09:57:23.211Z,35.44
2019-05-15T09:59:53.116Z,36.49
2019-05-15T10:02:23.023Z,36.32
2019-05-15T10:05:06.185Z,35.71
2019-05-15T10:07:24.754Z,35.57
2019-05-15T10:09:54.658Z,35.81
2019-05-15T10:12:24.603Z,36.01
2019-05-15T10:14:54.627Z,36.10
2019-05-15T10:17:24.661Z,36.89
2019-05-15T10:19:54.768Z,37.20
2019-05-15T10:22:24.659Z,36.82
2019-05-15T10:24:54.625Z,37.39
2019-05-15T10:27:24.535Z,36.53
2019-05-15T10:29:54.412Z,36.50
2019-05-15T10:32:24.460Z,36.58
2019-05-15T10:34:54.369Z,35.55
2019-05-15T10:37:24.260Z,36.65
2019-05-15T10:39:54.156Z,36.68
2019-05-15T10:42:24.122Z,37.49
2019-05-15T10:44:54.121Z,35.92
2019-05-15T10:47:24.329Z,36.59
2019-05-15T10:49:54.237Z,37.00
2019-05-15T10:52:24.127Z,37.38
2019-05-15T10:54:54.016Z,36.96
2019-05-15T10:57:23.933Z,36.74
2019-05-15T10:59:53.815Z,37.28
2019-05-15T11:02:23.726Z,36.64
2019-05-15T11:04:53.662Z,35.84
2019-05-15T11:07:23.673Z,35.98
2019-05-15T11:09:53.760Z,36.25
2019-05-15T11:12:23.804Z,36.33
2019-05-15T11:14:53.862Z,36.21
2019-05-15T11:17:24.407Z,35.47
2019-05-15T11:19:55.057Z,34.64
2019-05-15T11:22:25.115Z,35.92
2019-05-15T11:24:55.690Z,36.47
2019-05-15T11:27:28.370Z,35.18
2019-05-15T11:29:58.520Z,34.47
2019-05-15T11:32:29.354Z,35.26
2019-05-15T11:34:59.513Z,35.71
2019-05-15T11:37:29.417Z,33.93
2019-05-15T11:40:02.774Z,34.04
2019-05-15T11:42:32.680Z,34.23
2019-05-15T11:45:02.751Z,34.46
2019-05-15T11:47:32.626Z,34.19
2019-05-15T11:50:02.554Z,35.02
2019-05-15T11:52:32.444Z,35.09
2019-05-15T11:55:02.298Z,35.23
2019-05-15T11:57:42.762Z,34.08
2019-05-15T12:00:04.680Z,34.55
2019-05-15T12:02:34.912Z,34.02
2019-05-15T12:05:05.102Z,34.93
2019-05-15T12:07:34.950Z,34.78
2019-05-15T12:10:05.200Z,34.64
2019-05-15T12:12:35.104Z,33.91
2019-05-15T12:15:05.566Z,32.88
2019-05-15T12:17:35.634Z,32.81
2019-05-15T12:20:09.840Z,32.88
2019-05-15T12:22:39.386Z,34.49
2019-05-15T12:25:10.731Z,34.32
2019-05-15T12:27:40.704Z,34.03
2019-05-15T12:30:13.751Z,33.97
2019-05-15T12:32:43.668Z,32.79
2019-05-15T12:35:14.061Z,33.15
2019-05-15T12:37:43.965Z,33.92
2019-05-15T13:00:29.872Z,31.69
2019-05-15T13:02:59.999Z,32.30
2019-05-15T13:05:32.507Z,32.01
2019-05-15T13:08:01.585Z,33.23
2019-05-15T13:10:31.468Z,33.26
2019-05-15T13:13:05.381Z,32.95
2019-05-15T13:15:33.142Z,33.19
2019-05-15T13:18:03.110Z,34.48
2019-05-15T13:20:33.008Z,34.79
2019-05-15T13:23:02.943Z,34.84
2019-05-15T13:25:32.890Z,34.83
2019-05-15T13:28:02.974Z,34.97
2019-05-15T13:30:33.057Z,34.84
2019-05-15T13:33:02.985Z,34.82
2019-05-15T13:35:33.171Z,35.29
2019-05-15T13:38:03.066Z,37.23
2019-05-15T13:40:37.890Z,37.95
2019-05-15T13:43:04.652Z,39.38
2019-05-15T13:45:34.764Z,40.07
2019-05-15T13:48:04.751Z,39.88
2019-05-15T13:50:34.683Z,41.04
2019-05-15T13:53:04.600Z,43.32
2019-05-15T13:55:37.019Z,43.63
2019-05-15T13:58:08.497Z,43.38
2019-05-15T14:00:38.880Z,43.45
2019-05-15T14:03:09.542Z,45.96
2019-05-15T14:05:39.454Z,44.68
2019-05-15T14:08:09.428Z,44.98
2019-05-15T14:10:39.327Z,45.08
2019-05-15T14:13:09.249Z,46.60
2019-05-15T14:15:39.186Z,46.59
2019-05-15T14:18:09.152Z,46.47
2019-05-15T14:20:39.165Z,44.46
2019-05-15T14:23:09.333Z,44.74
2019-05-15T14:25:39.325Z,44.13
2019-05-15T14:28:09.243Z,44.38
2019-05-15T14:30:39.295Z,44.75
2019-05-15T14:33:09.201Z,44.13
2019-05-15T14:35:39.216Z,45.00
2019-05-15T14:38:10.294Z,44.28
2019-05-15T14:40:40.890Z,43.64
2019-05-15T14:43:10.775Z,45.17
2019-05-15T14:45:41.067Z,44.12
2019-05-15T14:48:11.050Z,44.47
2019-05-15T14:50:41.123Z,43.57
2019-05-15T14:53:11.046Z,43.45
2019-05-15T14:55:44.050Z,43.18
2019-05-15T14:58:12.959Z,43.15
2019-05-15T15:00:42.892Z,42.29
2019-05-15T15:03:13.132Z,41.92
2019-05-15T15:05:43.038Z,42.04
2019-05-15T15:08:21.570Z,42.74
2019-05-15T15:10:44.672Z,43.28
2019-05-15T15:13:14.672Z,42.61
2019-05-15T15:15:44.611Z,42.61
2019-05-15T15:18:14.669Z,42.61
2019-05-15T15:20:44.569Z,42.20
2019-05-15T15:23:14.488Z,42.98
2019-05-15T15:25:44.476Z,42.47
2019-05-15T15:28:14.394Z,42.52
2019-05-15T15:30:44.590Z,42.50
2019-05-15T15:33:14.774Z,42.91
2019-05-15T15:35:45.094Z,43.45
2019-05-15T15:38:15.139Z,43.11
2019-05-15T15:40:45.041Z,43.10
2019-05-15T15:43:15.012Z,42.33
2019-05-15T15:45:44.949Z,42.43
2019-05-15T15:48:14.894Z,42.15
2019-05-15T15:50:44.840Z,42.05
2019-05-15T15:53:14.818Z,41.85
2019-05-15T15:55:44.716Z,42.24
2019-05-15T15:58:15.427Z,42.46
2019-05-15T16:00:45.339Z,42.36
2019-05-15T16:03:15.312Z,42.18
2019-05-15T16:05:45.221Z,42.35
2019-05-15T16:08:15.126Z,41.54
2019-05-15T16:10:45.063Z,42.17
2019-05-15T16:13:14.987Z,41.35
2019-05-15T16:15:44.961Z,41.44
2019-05-15T16:18:15.027Z,41.57
2019-05-15T16:20:44.966Z,41.30
2019-05-15T16:23:15.019Z,41.27
2019-05-15T16:25:44.992Z,41.10
2019-05-15T16:28:15.151Z,41.64
2019-05-15T16:30:51.018Z,42.16
2019-05-15T16:33:18.389Z,41.92
2019-05-15T16:35:48.863Z,42.31
2019-05-15T16:38:19.352Z,42.06
2019-05-15T16:40:49.257Z,43.10
2019-05-15T16:43:19.546Z,43.19
2019-05-15T16:45:52.098Z,42.50
2019-05-15T16:48:21.144Z,44.38
2019-05-15T16:50:51.122Z,44.89
2019-05-15T16:53:20.998Z,44.41
2019-05-15T16:55:50.977Z,45.62
2019-05-15T16:58:20.876Z,44.36
2019-05-15T17:00:50.955Z,44.77
2019-05-15T17:03:20.875Z,44.89
2019-05-15T17:05:50.885Z,46.18
2019-05-15T17:08:20.777Z,46.77
2019-05-15T17:10:50.727Z,45.84
2019-05-15T17:13:20.619Z,48.25
2019-05-15T17:15:50.513Z,52.38
2019-05-15T17:18:20.437Z,49.59
2019-05-15T17:20:50.468Z,50.29
2019-05-15T17:23:20.483Z,50.80
2019-05-15T17:25:50.397Z,50.79
2019-05-15T17:28:20.348Z,49.94
2019-05-15T17:30:50.236Z,48.90
2019-05-15T17:33:20.286Z,49.06
2019-05-15T17:35:50.612Z,48.99
2019-05-15T17:38:20.671Z,48.35
2019-05-15T17:40:50.568Z,48.74
2019-05-15T17:43:20.497Z,48.66
2019-05-15T17:45:50.383Z,48.45
2019-05-15T17:48:20.320Z,49.48
2019-05-15T17:50:52.663Z,51.28
2019-05-15T17:53:21.910Z,50.24
2019-05-15T17:55:51.894Z,49.35
2019-05-15T17:58:21.960Z,52.35
2019-05-15T18:00:52.053Z,55.42
2019-05-15T18:03:22.233Z,57.53
2019-05-15T18:05:52.134Z,58.22
2019-05-15T18:08:22.888Z,57.39
2019-05-15T18:10:53.460Z,61.01
2019-05-15T18:13:23.412Z,59.64
2019-05-15T18:15:53.367Z,60.60
2019-05-15T18:18:23.299Z,59.75
2019-05-15T18:20:53.222Z,60.37
2019-05-15T18:23:23.633Z,59.19
2019-05-15T18:25:53.759Z,59.97
2019-05-15T18:28:23.791Z,59.56
2019-05-15T18:30:53.772Z,57.45
2019-05-15T18:33:23.798Z,57.12
2019-05-15T18:35:53.693Z,58.05
2019-05-15T18:38:23.589Z,57.77
2019-05-15T18:40:53.624Z,57.07
2019-05-15T18:43:23.551Z,57.67
2019-05-15T18:45:53.487Z,57.10
2019-05-15T18:48:23.907Z,57.91
2019-05-15T18:50:53.874Z,57.56
2019-05-15T18:53:23.888Z,57.59
2019-05-15T18:55:54.057Z,57.29
2019-05-15T18:58:24.092Z,56.29
2019-05-15T19:00:54.260Z,56.83
2019-05-15T19:03:24.168Z,55.90
2019-05-15T19:05:58.406Z,56.70
2019-05-15T19:08:28.645Z,55.68
2019-05-15T19:10:58.743Z,56.50
2019-05-15T19:13:28.691Z,56.93
2019-05-15T19:15:58.699Z,55.84
2019-05-15T19:18:28.610Z,55.62
2019-05-15T19:20:58.811Z,55.28
2019-05-15T19:23:28.987Z,54.87
2019-05-15T19:25:58.885Z,55.86
2019-05-15T19:28:28.881Z,56.35
2019-05-15T19:30:58.885Z,55.72
2019-05-15T19:33:37.059Z,54.69
2019-05-15T19:36:02.240Z,54.96
2019-05-15T19:38:32.340Z,55.29
2019-05-15T19:41:03.892Z,55.70
2019-05-15T19:43:34.258Z,55.05
2019-05-15T19:46:04.350Z,53.85
2019-05-15T19:48:34.338Z,54.39
2019-05-15T19:51:04.305Z,52.83
2019-05-15T19:53:34.579Z,55.58
2019-05-15T19:56:04.532Z,54.69
2019-05-15T19:58:34.445Z,53.15
2019-05-15T20:01:04.541Z,53.58
2019-05-15T20:03:47.331Z,54.41
2019-05-15T20:06:08.402Z,54.49
2019-05-15T20:08:38.557Z,54.09
2019-05-15T20:11:10.424Z,53.44
2019-05-15T20:13:40.402Z,53.05
2019-05-15T20:16:10.302Z,51.93
2019-05-15T20:18:40.312Z,51.39
2019-05-15T20:21:10.231Z,52.79
2019-05-15T20:23:40.118Z,53.45
2019-05-15T20:26:10.092Z,51.55
2019-05-15T20:28:40.312Z,52.61
2019-05-15T20:31:10.298Z,51.07
2019-05-15T20:33:40.386Z,50.57
2019-05-15T20:36:10.393Z,50.96
2019-05-15T20:38:40.381Z,52.49
2019-05-15T20:41:10.321Z,51.38
2019-05-15T20:43:40.490Z,52.41
2019-05-15T20:46:10.485Z,51.66
2019-05-15T20:48:40.400Z,52.17
2019-05-15T20:51:10.512Z,51.16
2019-05-15T20:53:40.559Z,51.00
2019-05-15T20:56:10.448Z,52.27
2019-05-15T20:58:40.393Z,52.12
2019-05-15T21:01:10.325Z,52.43
2019-05-15T21:03:40.444Z,52.33
2019-05-15T21:06:12.409Z,52.45
2019-05-15T21:08:42.174Z,51.37
2019-05-15T21:11:12.327Z,52.14
2019-05-15T21:13:42.313Z,52.25
2019-05-15T21:16:12.199Z,52.38
2019-05-15T21:18:42.104Z,52.21
2019-05-15T21:21:12.025Z,52.33
2019-05-15T21:23:41.951Z,51.75
2019-05-15T21:26:11.828Z,52.12
2019-05-15T21:28:41.781Z,52.17
2019-05-15T21:31:11.981Z,52.76
2019-05-15T21:33:41.870Z,51.91
2019-05-15T21:36:11.814Z,50.63
2019-05-15T21:38:41.740Z,51.82
2019-05-15T21:41:11.965Z,51.35
2019-05-15T21:43:41.970Z,50.81
2019-05-15T21:46:11.922Z,51.16
2019-05-15T21:48:41.822Z,50.74
2019-05-15T21:51:12.091Z,51.08
2019-05-15T21:53:41.989Z,51.43
2019-05-15T21:56:11.975Z,51.01
2019-05-15T21:58:41.953Z,52.13
2019-05-15T22:01:12.320Z,51.35
2019-05-15T22:03:42.592Z,51.00
2019-05-15T22:06:12.552Z,51.57
2019-05-15T22:08:42.509Z,49.79
2019-05-15T22:11:12.476Z,50.66
2019-05-15T22:13:42.406Z,50.34
2019-05-15T22:16:13.019Z,50.70
2019-05-15T22:18:43.083Z,50.59
2019-05-15T22:21:13.058Z,51.17
2019-05-15T22:23:43.193Z,49.87
2019-05-15T22:26:13.236Z,49.64
2019-05-15T22:28:43.124Z,50.22
2019-05-15T22:31:13.122Z,50.24
2019-05-15T22:33:42.991Z,50.33
2019-05-15T22:36:12.941Z,50.69
2019-05-15T22:38:43.004Z,50.17
2019-05-15T22:41:12.993Z,50.08
2019-05-15T22:43:43.143Z,51.91
2019-05-15T22:46:13.101Z,52.03
2019-05-15T22:48:43.907Z,52.09
2019-05-15T22:51:14.338Z,50.23
2019-05-15T22:53:44.640Z,52.08
2019-05-15T22:56:14.968Z,52.74
2019-05-15T22:58:45.116Z,51.24
2019-05-15T23:01:15.176Z,52.07
2019-05-15T23:03:47.731Z,53.27
2019-05-15T23:06:17.864Z,52.09
2019-05-15T23:08:49.088Z,52.02
2019-05-15T23:11:19.604Z,51.79
2019-05-15T23:13:49.675Z,53.55
2019-05-15T23:16:20.469Z,55.46
2019-05-15T23:18:50.420Z,55.72
2019-05-15T23:21:21.006Z,55.63
2019-05-15T23:23:51.032Z,56.15
2019-05-15T23:26:21.083Z,54.86
2019-05-15T23:28:51.160Z,56.44
2019-05-15T23:31:21.113Z,56.33
2019-05-15T23:33:52.166Z,58.01
2019-05-15T23:36:22.237Z,58.46
2019-05-15T23:38:52.352Z,58.63
2019-05-15T23:41:22.669Z,58.35
2019-05-15T23:43:52.633Z,57.42
2019-05-15T23:46:22.760Z,56.76
2019-05-15T23:48:53.464Z,58.19
2019-05-15T23:51:23.604Z,59.55
2019-05-15T23:53:54.218Z,58.37
2019-05-15T23:56:24.303Z,60.28
2019-05-15T23:58:54.462Z,60.37
